Flight Track Log - Related Links

Times and Time Zones

All times are in EDT time to prevent confusion due to time zone crossing. See the SKW6528 flight status page for this flight to view local times or setup timezone preferences in your user account.

Time Position Orientation Groundspeed Altitude Reporting Facility
EDT Latitude Longitude Course Direction KTS MPH feet Rate Location/Type
Mon 12:25:48 PM 39.8667 -104.6000 90° East 190 219 6,600  Level Denver TRACON
Mon 12:26:48 PM 39.8500 -104.5333 108° East 240 276 8,800 2,087 Climbing Denver TRACON
Mon 12:27:43 PM 39.8333 -104.4333 102° East 295 339 10,600 2,093 Climbing Denver TRACON
Mon 12:28:00 PM 39.7823 -104.1515 101° East  Level FlightAware
Mon 12:28:14 PM 39.8100 -104.3797 120° Southeast 301 346 11,800  Level Denver Center
Mon 12:29:00 PM 39.7667 -103.9791 90° East  Level FlightAware
Mon 12:29:16 PM 39.8011 -104.2636 96° East 325 374 14,000  Level Denver Center
Mon 12:30:00 PM 39.7482 -103.8096 108° East  Level FlightAware
Mon 12:30:18 PM 39.7853 -104.1431 100° East 336 387 16,200  Level Denver Center
Mon 12:31:00 PM 39.7333 -103.6384 90° East  Level FlightAware
Mon 12:31:20 PM 39.7739 -104.0056 96° East 355 409 18,200  Level Denver Center
Mon 12:32:22 PM 39.7539 -103.8731 101° East 372 428 20,000 1,597 Climbing Denver Center
Mon 12:33:24 PM 39.7392 -103.7356 98° East 381 438 21,500 1,548 Climbing Denver Center
Mon 12:34:26 PM 39.7300 -103.5939 95° East 387 445 23,200 1,452 Climbing Denver Center
Mon 12:35:28 PM 39.7183 -103.4469 96° East 403 464 24,500 1,113 Climbing Denver Center
Mon 12:36:30 PM 39.6908 -103.2994 104° East 417 480 25,500 1,016 Climbing Denver Center
Mon 12:37:32 PM 39.6564 -103.1211 104° East 432 497 26,600 823 Climbing Denver Center
Mon 12:38:34 PM 39.6264 -102.9628 104° East 445 512 27,200 581 Climbing Denver Center
Mon 12:39:36 PM 39.5911 -102.7992 106° East 461 531 27,800 581 Climbing Denver Center
Mon 12:40:38 PM 39.5567 -102.6281 105° East 484 557 28,400 581 Climbing Denver Center
Mon 12:41:40 PM 39.5211 -102.4550 105° East 492 566 29,000 677 Climbing Denver Center
Mon 12:42:42 PM 39.4825 -102.2611 104° East 498 573 29,800 871 Climbing Denver Center
Mon 12:43:44 PM 39.4467 -102.0933 105° East 504 580 30,800 774 Climbing Denver Center
Mon 12:44:46 PM 39.4072 -101.9008 105° East 498 573 31,400 532 Climbing Denver Center
Mon 12:45:48 PM 39.3711 -101.7342 106° East 504 580 31,900 532 Climbing Denver Center
Mon 12:46:50 PM 39.3292 -101.5367 105° East 511 588 32,500 484 Climbing Denver Center
Mon 12:47:52 PM 39.2925 -101.3681 106° East 512 589 32,900 240 Climbing Denver Center
Mon 12:48:55 PM 39.2489 -101.1692 106° East 516 594 33,000 48 Climbing Denver Center
Mon 12:49:57 PM 39.2119 -100.9981 106° East 519 597 33,000  Level Denver Center
Mon 12:50:59 PM 39.1683 -100.7997 106° East 517 595 33,000  Level Denver Center
Mon 12:52:01 PM 39.1308 -100.6325 106° East 514 592 33,000  Level Denver Center
Mon 12:53:03 PM 39.0936 -100.4644 106° East 512 589 33,000  Level Denver Center
Mon 12:54:05 PM 39.0500 -100.2733 106° East 505 581 33,000  Level Denver Center
Mon 12:55:07 PM 39.0125 -100.1081 106° East 503 579 33,000  Level Denver Center
Mon 12:56:09 PM 38.9697 -99.9228 106° East 502 578 33,000  Level Denver Center
Mon 12:57:11 PM 38.9261 -99.7328 106° East 498 573 33,000  Level Denver Center
Mon 12:58:13 PM 38.8886 -99.5703 106° East 496 571 33,000  Level Denver Center
Mon 12:59:15 PM 38.8436 -99.3814 107° East 495 570 33,000  Level Denver Center
Mon 12:59:51 PM 38.8233 -99.2992 108° East 493 567 33,000  Level Kansas Center
Mon 01:00:52 PM 38.7856 -99.1314 106° East 491 565 33,000  Level Kansas Center
Mon 01:01:55 PM 38.7422 -98.9658 109° East 490 564 33,000  Level Kansas Center
Mon 01:02:56 PM 38.6619 -98.8308 127° Southeast 479 551 33,000  Level Kansas Center
Mon 01:03:57 PM 38.5706 -98.7067 133° Southeast 479 551 33,000  Level Kansas Center
Mon 01:05:01 PM 38.4619 -98.5567 133° Southeast 479 551 33,000  Level Kansas Center
Mon 01:06:02 PM 38.3703 -98.4325 133° Southeast 480 552 33,000  Level Kansas Center
Mon 01:07:03 PM 38.2797 -98.3083 133° Southeast 480 552 33,000  Level Kansas Center
Mon 01:08:06 PM 38.1892 -98.1836 133° Southeast 479 551 33,000  Level Kansas Center
Mon 01:09:07 PM 38.0969 -98.0597 133° Southeast 479 551 33,000  Level Kansas Center
Mon 01:10:12 PM 38.0050 -97.9364 133° Southeast 479 551 33,000  Level Kansas Center
Mon 01:11:12 PM 37.8947 -97.7844 133° Southeast 481 554 33,000  Level Kansas Center
Mon 01:12:13 PM 37.8203 -97.6867 134° Southeast 481 554 33,000  Level Kansas Center
Mon 01:13:17 PM 37.7131 -97.5342 132° Southeast 481 554 33,000  Level Kansas Center
Mon 01:14:18 PM 37.6194 -97.3981 131° Southeast 483 556 33,000  Level Kansas Center
Mon 01:15:19 PM 37.5303 -97.2717 132° Southeast 485 558 33,000  Level Kansas Center
Mon 01:16:23 PM 37.4408 -97.1439 131° Southeast 486 559 33,000  Level Kansas Center
Mon 01:17:24 PM 37.3508 -97.0167 132° Southeast 487 560 33,000  Level Kansas Center
Mon 01:18:27 PM 37.2619 -96.8881 131° Southeast 487 560 33,000  Level Kansas Center
Mon 01:19:28 PM 37.1750 -96.7558 130° Southeast 491 565 33,000  Level Kansas Center
Mon 01:20:32 PM 37.1022 -96.5789 117° Southeast 489 563 33,000  Level Kansas Center
Mon 01:21:32 PM 37.0603 -96.4106 107° East 498 573 33,000  Level Kansas Center
Mon 01:22:36 PM 37.0308 -96.2422 102° East 490 564 33,000  Level Kansas Center
Mon 01:23:36 PM 37.0381 -96.0667 87° East 494 568 33,000  Level Kansas Center
Mon 01:24:39 PM 37.0547 -95.8961 83° East 492 566 33,000  Level Kansas Center
Mon 01:25:41 PM 37.0714 -95.6939 84° East 487 560 33,000  Level Kansas Center
Mon 01:26:41 PM 37.0867 -95.5225 84° East 488 562 33,000  Level Kansas Center
Mon 01:27:46 PM 37.1000 -95.3517 84° East 489 563 33,000  Level Kansas Center
Mon 01:28:46 PM 37.1144 -95.1794 84° East 492 566 33,000  Level Kansas Center
Mon 01:29:48 PM 37.1286 -95.0097 84° East 490 564 33,000  Level Kansas Center
Mon 01:30:51 PM 37.1419 -94.8383 84° East 491 565 33,000  Level Kansas Center
Mon 01:31:52 PM 37.1550 -94.6686 84° East 489 563 33,000 -1,440 Level Kansas Center
Mon 01:32:56 PM 37.1697 -94.4992 84° East 488 562 30,000 -3,504 Descending Kansas Center
Mon 01:33:57 PM 37.1844 -94.2956 85° East 487 560 25,700 -3,871 Descending Kansas Center
Mon 01:35:00 PM 37.1967 -94.1286 85° East 483 556 22,000 -3,484 Descending Kansas Center
Mon 01:36:01 PM 37.2069 -93.9664 85° East 461 531 18,500 -3,492 Descending Kansas Center
Mon 01:37:02 PM 37.2553 -93.8319 66° East 432 497 14,900 -3,216 Descending Kansas Center
Mon 01:38:06 PM 37.3217 -93.7178 54° Northeast 409 471 11,800 -2,064 Descending Kansas Center
Mon 01:39:07 PM 37.3861 -93.6269 48° Northeast 352 405 10,600 -1,131 Descending Kansas Center
Mon 01:40:08 PM 37.4319 -93.5442 55° Northeast 300 345 9,500 -1,440 Descending Kansas Center
Mon 01:41:12 PM 37.3958 -93.5119 145° Southeast 208 239 7,600 -2,352 Descending Kansas Center
Mon 01:42:13 PM 37.3517 -93.5050 173° South 180 207 4,600 -2,177 Descending Kansas Center
Mon 01:43:16 PM 37.3244 -93.4672 132° Southeast 162 186 3,100 -1,429 Descending Kansas Center

Login

Don't have an account? Register now (free) for customized features, flight alerts, and more!